Time;durP1;ratioP1;P1;durP2;ratioP2;P2;SDS_P1;SDS_P2;PMS_P1;PMS_P2;Temp;Humidity;BMP_temperature;BMP_pressure;BME280_temperature;BME280_humidity;BME280_pressure;Samples;Min_cycle;Max_cycle;Signal;HPM_P1;HPM_P2
2021/06/19 00:01:03;;;;;;;10.80;3.85;;;27.20;47.60;;;;;;5013838;28;20026;-37
2021/06/19 00:03:29;;;;;;;11.55;4.00;;;27.10;47.60;;;;;;5013461;28;20457;-37
2021/06/19 00:05:55;;;;;;;7.32;3.83;;;27.10;47.80;;;;;;5013755;28;20040;-38
2021/06/19 00:08:23;;;;;;;8.15;3.83;;;27.00;47.80;;;;;;5013455;28;20018;-36
2021/06/19 00:10:49;;;;;;;7.38;3.88;;;27.00;47.90;;;;;;5013272;28;20116;-36
2021/06/19 00:13:15;;;;;;;8.02;3.70;;;26.90;48.00;;;;;;5013954;28;20032;-37
2021/06/19 00:15:41;;;;;;;7.50;4.35;;;26.90;48.00;;;;;;4996205;28;20018;-37
2021/06/19 00:18:07;;;;;;;9.10;3.78;;;26.90;48.10;;;;;;4996259;28;20075;-37
2021/06/19 00:20:33;;;;;;;7.75;3.78;;;26.90;48.10;;;;;;5013482;28;20439;-46
2021/06/19 00:22:58;;;;;;;9.18;3.95;;;26.80;48.20;;;;;;5012850;28;20026;-37
2021/06/19 00:25:26;;;;;;;6.95;4.00;;;26.80;48.30;;;;;;5013398;28;20055;-38
2021/06/19 00:27:52;;;;;;;5.45;3.50;;;26.80;48.30;;;;;;4995068;28;20034;-37
2021/06/19 00:30:19;;;;;;;10.13;4.00;;;26.80;48.40;;;;;;4995740;28;20075;-37
2021/06/19 00:32:46;;;;;;;9.15;3.97;;;26.80;48.40;;;;;;5013504;28;20040;-38
2021/06/19 00:35:12;;;;;;;7.88;3.85;;;26.80;48.40;;;;;;4995278;28;20029;-37
2021/06/19 00:37:38;;;;;;;7.68;3.65;;;26.80;48.30;;;;;;5013270;28;20415;-37
2021/06/19 00:40:10;;;;;;;5.90;3.80;;;26.80;48.30;;;;;;5013247;28;20033;-37
2021/06/19 00:42:36;;;;;;;6.93;3.72;;;26.80;48.30;;;;;;5013051;28;20037;-37
2021/06/19 00:45:03;;;;;;;8.05;3.92;;;26.80;48.30;;;;;;5012347;28;20192;-38
2021/06/19 00:47:29;;;;;;;7.85;3.67;;;26.80;48.30;;;;;;5013469;28;20357;-36
2021/06/19 00:49:55;;;;;;;11.90;4.03;;;26.80;48.40;;;;;;4995483;28;20018;-37
2021/06/19 00:52:21;;;;;;;7.57;4.13;;;26.80;48.50;;;;;;5013787;28;20024;-37
2021/06/19 00:54:47;;;;;;;6.93;3.55;;;26.80;48.50;;;;;;5013358;28;20028;-37
2021/06/19 00:57:13;;;;;;;8.90;3.65;;;26.80;48.50;;;;;;5013475;28;20021;-37
2021/06/19 00:59:41;;;;;;;13.93;4.18;;;26.80;48.50;;;;;;4995396;28;20127;-37
2021/06/19 01:02:07;;;;;;;7.80;3.92;;;26.80;48.60;;;;;;5012249;28;20073;-38
2021/06/19 01:04:33;;;;;;;8.65;4.22;;;26.70;48.80;;;;;;5012688;28;20034;-37
2021/06/19 01:06:59;;;;;;;6.40;3.92;;;26.70;49.00;;;;;;4995015;28;20433;-38
2021/06/19 01:09:25;;;;;;;10.25;3.75;;;26.70;49.00;;;;;;4995602;28;20022;-36
2021/06/19 01:11:52;;;;;;;9.60;4.03;;;26.70;49.10;;;;;;5012075;28;20022;-38
2021/06/19 01:14:18;;;;;;;6.30;4.03;;;26.60;49.30;;;;;;4994763;28;20369;-37
2021/06/19 01:16:49;;;;;;;10.30;4.75;;;26.50;49.70;;;;;;5012262;28;20029;-38
2021/06/19 01:19:16;;;;;;;9.55;4.22;;;26.40;50.20;;;;;;4994454;28;20469;-37
2021/06/19 01:21:42;;;;;;;8.85;3.78;;;26.30;50.20;;;;;;4994486;28;20105;-37
2021/06/19 01:24:17;;;;;;;8.65;4.25;;;26.40;50.30;;;;;;4994106;28;20034;-37
2021/06/19 01:26:43;;;;;;;7.40;4.43;;;26.40;50.40;;;;;;5012117;28;20021;-38
2021/06/19 01:29:10;;;;;;;8.05;4.15;;;26.40;50.30;;;;;;5011955;28;20030;-37
2021/06/19 01:31:38;;;;;;;11.57;4.18;;;26.40;50.40;;;;;;5012115;28;20030;-37
2021/06/19 01:34:04;;;;;;;8.20;4.00;;;26.40;50.50;;;;;;4986368;28;20029;-38
2021/06/19 01:36:29;;;;;;;9.55;4.35;;;26.40;50.40;;;;;;4993996;28;20465;-39
2021/06/19 01:38:56;;;;;;;7.65;4.28;;;26.30;50.40;;;;;;4992889;28;20076;-38
2021/06/19 01:41:27;;;;;;;11.55;4.50;;;26.30;50.60;;;;;;5010740;28;20025;-39
2021/06/19 01:44:05;;;;;;;10.02;4.53;;;26.30;50.80;;;;;;5010862;28;20536;-38
2021/06/19 01:46:33;;;;;;;8.07;4.20;;;26.20;50.90;;;;;;5012419;28;20033;-38
2021/06/19 01:48:58;;;;;;;7.88;4.28;;;26.20;51.00;;;;;;4994024;28;20030;-40
2021/06/19 01:51:24;;;;;;;8.10;4.30;;;26.20;51.10;;;;;;5012121;28;20109;-37
2021/06/19 01:53:52;;;;;;;8.60;4.05;;;26.00;51.40;;;;;;4993992;28;20045;-38
2021/06/19 01:56:19;;;;;;;9.60;4.13;;;26.00;51.70;;;;;;5012441;28;20105;-36
2021/06/19 01:58:45;;;;;;;9.07;4.20;;;26.00;51.80;;;;;;5011451;28;20119;-38
2021/06/19 02:01:12;;;;;;;8.68;4.00;;;25.90;52.00;;;;;;4993725;28;20116;-38
2021/06/19 02:03:38;;;;;;;7.93;4.38;;;25.90;52.10;;;;;;5012049;28;20076;-37
2021/06/19 02:06:05;;;;;;;9.65;4.32;;;25.80;52.30;;;;;;5011774;28;20033;-40
2021/06/19 02:08:32;;;;;;;13.48;4.53;;;25.80;52.20;;;;;;4995036;28;20026;-38
2021/06/19 02:10:58;;;;;;;9.45;4.88;;;25.80;52.40;;;;;;5011057;28;20026;-37
2021/06/19 02:13:25;;;;;;;11.18;5.00;;;25.80;52.50;;;;;;5011623;28;20244;-38
2021/06/19 02:15:53;;;;;;;11.98;5.18;;;25.80;52.80;;;;;;4994094;28;20034;-38
2021/06/19 02:18:19;;;;;;;12.50;4.80;;;25.70;53.10;;;;;;5012259;28;20022;-37
2021/06/19 02:20:48;;;;;;;7.78;4.90;;;25.70;53.20;;;;;;5011396;28;20030;-38
2021/06/19 02:23:14;;;;;;;8.00;4.90;;;25.70;53.50;;;;;;5011613;28;20464;-37
2021/06/19 02:25:40;;;;;;;16.92;5.32;;;25.70;53.50;;;;;;5013369;28;20109;-40
2021/06/19 02:28:08;;;;;;;13.63;5.10;;;25.60;53.50;;;;;;4997643;28;20121;-38
2021/06/19 02:30:43;;;;;;;12.30;5.00;;;25.60;53.60;;;;;;5015882;28;20034;-38
2021/06/19 02:33:09;;;;;;;14.40;5.47;;;25.50;53.90;;;;;;5014854;28;20176;-37
2021/06/19 02:35:41;;;;;;;10.35;4.70;;;25.50;53.80;;;;;;5015146;28;20022;-37
2021/06/19 02:38:08;;;;;;;9.63;4.93;;;25.50;53.90;;;;;;5015892;28;20022;-36
2021/06/19 02:40:35;;;;;;;13.27;5.15;;;25.50;54.00;;;;;;4998586;28;20026;-37
2021/06/19 02:43:01;;;;;;;10.50;4.50;;;25.40;54.60;;;;;;5015101;28;20469;-37
2021/06/19 02:45:27;;;;;;;12.52;4.88;;;25.30;54.60;;;;;;4997318;28;20054;-38
2021/06/19 02:47:55;;;;;;;9.35;4.90;;;25.30;54.60;;;;;;5014959;28;20022;-38
2021/06/19 02:50:24;;;;;;;6.95;4.15;;;25.30;54.60;;;;;;4997618;28;20133;-37
2021/06/19 02:52:50;;;;;;;11.35;4.50;;;25.30;54.50;;;;;;5015021;28;20037;-37
2021/06/19 02:55:27;;;;;;;9.85;4.22;;;25.40;54.50;;;;;;5015134;28;20022;-38
2021/06/19 02:57:53;;;;;;;7.70;4.55;;;25.30;54.60;;;;;;5015113;28;20112;-38
2021/06/19 03:00:21;;;;;;;13.10;5.40;;;25.30;54.60;;;;;;4997997;28;20492;-38
2021/06/19 03:02:47;;;;;;;7.85;4.72;;;25.30;54.70;;;;;;4997670;28;20030;-37
2021/06/19 03:05:17;;;;;;;10.50;5.00;;;25.30;54.70;;;;;;4997027;28;20026;-37
2021/06/19 03:07:43;;;;;;;8.68;4.43;;;25.30;54.80;;;;;;5014253;28;20168;-37
2021/06/19 03:10:12;;;;;;;11.75;4.82;;;25.30;54.70;;;;;;4996680;28;20037;-37
2021/06/19 03:12:37;;;;;;;10.98;5.22;;;25.30;55.10;;;;;;5014548;28;20022;-36
2021/06/19 03:15:07;;;;;;;10.32;4.85;;;25.20;55.20;;;;;;5014607;28;20026;-38
2021/06/19 03:17:33;;;;;;;10.43;5.07;;;25.20;55.30;;;;;;5015293;28;20033;-36
2021/06/19 03:19:59;;;;;;;10.20;4.90;;;25.20;55.20;;;;;;4996920;28;20022;-37
2021/06/19 03:22:25;;;;;;;10.65;4.55;;;25.20;55.00;;;;;;4997584;28;20028;-38
2021/06/19 03:24:51;;;;;;;9.95;5.10;;;25.20;55.20;;;;;;5014841;28;20434;-36
2021/06/19 03:27:18;;;;;;;8.48;5.38;;;25.10;55.50;;;;;;4996554;28;20549;-37
2021/06/19 03:29:44;;;;;;;15.25;4.95;;;25.00;55.60;;;;;;4996884;28;20032;-37
2021/06/19 03:32:11;;;;;;;13.32;5.55;;;25.10;55.50;;;;;;4980044;28;20435;-37
2021/06/19 03:34:37;;;;;;;16.70;5.30;;;25.00;56.00;;;;;;5014283;28;20113;-36
2021/06/19 03:37:04;;;;;;;10.73;4.80;;;24.90;56.50;;;;;;5013715;28;20033;-38
2021/06/19 03:39:32;;;;;;;11.30;5.40;;;25.00;55.90;;;;;;5014426;28;20057;-37
2021/06/19 03:41:58;;;;;;;12.82;5.03;;;25.00;55.70;;;;;;5013317;28;20025;-39
2021/06/19 03:44:25;;;;;;;10.93;5.00;;;25.10;55.50;;;;;;5013281;28;20050;-37
2021/06/19 03:46:51;;;;;;;14.90;5.20;;;25.20;55.20;;;;;;5014302;28;20034;-37
2021/06/19 03:49:18;;;;;;;12.43;5.13;;;25.20;55.20;;;;;;5013789;28;20026;-38
2021/06/19 03:51:46;;;;;;;15.27;5.80;;;25.20;55.20;;;;;;4996920;28;20440;-38
2021/06/19 03:54:11;;;;;;;10.18;5.30;;;25.20;55.10;;;;;;5013924;28;20450;-37
2021/06/19 03:56:37;;;;;;;9.02;4.90;;;25.30;54.90;;;;;;5014765;28;20034;-38
2021/06/19 03:59:04;;;;;;;17.70;5.40;;;25.40;54.80;;;;;;5013585;28;20026;-38
2021/06/19 04:01:30;;;;;;;10.10;5.38;;;25.40;54.70;;;;;;5014366;28;20408;-38
2021/06/19 04:03:56;;;;;;;8.88;5.03;;;25.40;54.70;;;;;;4996646;28;20030;-37
2021/06/19 04:06:21;;;;;;;12.25;5.25;;;25.30;54.70;;;;;;5013100;28;20435;-37
2021/06/19 04:08:47;;;;;;;9.70;5.00;;;25.40;54.70;;;;;;4996472;28;20034;-37
2021/06/19 04:11:16;;;;;;;9.35;5.32;;;25.40;54.70;;;;;;5013541;28;20025;-38
2021/06/19 04:13:42;;;;;;;15.23;5.43;;;25.40;54.70;;;;;;5013767;28;20080;-38
2021/06/19 04:16:11;;;;;;;16.13;5.13;;;25.40;54.70;;;;;;5012671;28;20030;-38
2021/06/19 04:18:37;;;;;;;9.25;5.18;;;25.40;54.80;;;;;;5013784;28;20416;-37
2021/06/19 04:21:04;;;;;;;10.60;5.53;;;25.40;54.90;;;;;;4994292;28;20480;-38
2021/06/19 04:23:31;;;;;;;13.77;5.38;;;25.40;54.70;;;;;;4995256;28;20044;-37
2021/06/19 04:25:57;;;;;;;9.48;5.22;;;25.50;54.70;;;;;;5012900;28;20366;-37
2021/06/19 04:31:07;;;;;;;11.10;5.20;;;25.70;54.00;;;;;;5012901;28;20056;-37
2021/06/19 04:33:33;;;;;;;18.45;5.85;;;25.70;54.00;;;;;;5013625;28;20030;-36
2021/06/19 04:35:59;;;;;;;7.80;4.88;;;25.70;54.10;;;;;;4995267;28;20532;-39
2021/06/19 04:38:25;;;;;;;10.77;4.93;;;25.70;53.70;;;;;;4995804;28;20045;-37
2021/06/19 04:40:58;;;;;;;12.00;5.05;;;25.70;53.60;;;;;;5012930;28;20026;-37
2021/06/19 04:43:28;;;;;;;10.60;5.28;;;25.70;53.50;;;;;;5011830;28;20488;-38
2021/06/19 04:45:54;;;;;;;9.02;5.10;;;25.80;53.40;;;;;;5013056;28;20042;-37
2021/06/19 04:48:20;;;;;;;15.57;4.82;;;25.80;53.20;;;;;;4994210;28;20022;-37
2021/06/19 04:50:46;;;;;;;9.55;4.93;;;25.90;53.10;;;;;;4995258;28;20153;-38
2021/06/19 04:53:13;;;;;;;8.90;4.63;;;25.90;52.90;;;;;;5012140;28;20090;-36
2021/06/19 04:55:40;;;;;;;9.88;4.95;;;25.90;52.70;;;;;;5012747;28;20022;-38
2021/06/19 04:58:09;;;;;;;8.77;4.82;;;26.00;52.60;;;;;;5011781;28;20033;-38
2021/06/19 05:00:35;;;;;;;9.07;5.35;;;26.10;52.40;;;;;;4994597;28;20168;-36
2021/06/19 05:03:01;;;;;;;12.68;4.97;;;26.10;52.30;;;;;;5012191;28;20117;-40
2021/06/19 05:05:28;;;;;;;11.77;4.90;;;26.10;52.30;;;;;;4995112;28;20382;-38
2021/06/19 05:07:54;;;;;;;8.13;4.80;;;26.20;52.00;;;;;;4995431;28;20365;-36
2021/06/19 05:10:20;;;;;;;8.25;5.13;;;26.20;51.70;;;;;;5012299;28;20433;-37
2021/06/19 05:12:47;;;;;;;6.30;4.65;;;26.20;51.90;;;;;;5012620;28;20058;-37
2021/06/19 05:15:23;;;;;;;10.77;5.03;;;26.30;51.70;;;;;;5011946;28;20029;-37
2021/06/19 05:17:50;;;;;;;12.20;5.07;;;26.40;51.70;;;;;;5012834;28;20040;-37
2021/06/19 05:20:16;;;;;;;9.27;5.38;;;26.40;51.40;;;;;;4994467;28;20337;-38
2021/06/19 05:22:43;;;;;;;10.02;4.78;;;26.40;51.20;;;;;;5012220;28;20038;-37
2021/06/19 05:25:12;;;;;;;8.32;5.07;;;26.40;51.20;;;;;;5011607;28;20026;-38
2021/06/19 05:27:38;;;;;;;10.18;5.47;;;26.40;51.20;;;;;;4994988;28;20113;-37
2021/06/19 05:30:05;;;;;;;9.15;5.03;;;26.50;51.30;;;;;;5011080;28;20080;-40
2021/06/19 05:32:31;;;;;;;12.52;5.03;;;26.60;51.00;;;;;;5012303;28;20029;-37
2021/06/19 05:34:56;;;;;;;9.00;5.15;;;26.70;50.70;;;;;;5012606;28;20025;-38
2021/06/19 05:37:22;;;;;;;8.55;5.05;;;26.60;50.50;;;;;;5012670;28;20469;-37
2021/06/19 05:39:48;;;;;;;6.15;5.38;;;26.70;50.40;;;;;;5012683;28;20062;-38
2021/06/19 05:42:13;;;;;;;8.05;4.93;;;26.70;50.30;;;;;;5011811;28;20392;-38
2021/06/19 05:44:39;;;;;;;7.72;5.32;;;26.70;50.50;;;;;;4994507;28;20413;-36
2021/06/19 05:47:06;;;;;;;8.93;5.45;;;26.80;50.40;;;;;;5011910;28;20453;-37
2021/06/19 05:49:32;;;;;;;10.55;5.13;;;26.80;50.10;;;;;;5012406;28;20026;-37
2021/06/19 05:51:57;;;;;;;10.48;5.38;;;26.90;50.10;;;;;;5012268;28;20030;-37
2021/06/19 05:54:23;;;;;;;12.45;5.43;;;26.90;50.10;;;;;;5011960;28;20433;-38
2021/06/19 05:56:49;;;;;;;8.43;5.05;;;26.90;50.30;;;;;;4994908;28;20472;-40
2021/06/19 05:59:15;;;;;;;8.50;5.28;;;27.00;50.10;;;;;;4993420;28;20057;-42
2021/06/19 06:01:41;;;;;;;6.78;5.13;;;27.00;49.90;;;;;;5011496;28;20112;-37
2021/06/19 06:04:07;;;;;;;9.25;5.10;;;27.00;50.00;;;;;;5011109;28;20457;-36
2021/06/19 06:06:32;;;;;;;11.85;5.65;;;27.10;49.90;;;;;;4994696;28;20033;-38
2021/06/19 06:08:59;;;;;;;9.93;5.28;;;27.20;49.90;;;;;;5011929;28;20080;-37
2021/06/19 06:11:24;;;;;;;9.40;5.75;;;27.30;49.60;;;;;;5011393;28;20109;-42
2021/06/19 06:13:50;;;;;;;10.13;4.93;;;27.30;49.40;;;;;;5012097;28;20117;-37
2021/06/19 06:16:16;;;;;;;10.52;6.13;;;27.40;49.40;;;;;;5011345;28;20025;-37
2021/06/19 06:18:41;;;;;;;12.32;5.80;;;27.40;49.60;;;;;;5012359;28;20041;-39
2021/06/19 06:21:08;;;;;;;8.63;5.70;;;27.40;49.60;;;;;;4993883;28;20515;-38
2021/06/19 06:23:33;;;;;;;8.80;5.38;;;27.50;49.50;;;;;;5011743;28;20030;-36
2021/06/19 06:26:00;;;;;;;8.55;4.95;;;27.50;49.30;;;;;;5011552;28;20080;-38
2021/06/19 06:28:26;;;;;;;6.28;5.18;;;27.60;49.30;;;;;;4993825;28;20033;-38
2021/06/19 06:30:52;;;;;;;8.75;5.20;;;27.70;49.30;;;;;;4994276;28;20030;-37
2021/06/19 06:33:20;;;;;;;8.63;5.72;;;27.70;49.00;;;;;;5011455;28;20037;-38
2021/06/19 06:35:45;;;;;;;12.88;6.72;;;27.70;49.10;;;;;;4993772;28;20034;-39
2021/06/19 06:38:11;;;;;;;10.15;6.00;;;27.80;48.90;;;;;;4993811;28;20026;-37
2021/06/19 06:40:37;;;;;;;13.23;6.10;;;28.00;48.70;;;;;;4994632;28;20076;-37
2021/06/19 06:43:03;;;;;;;10.75;5.75;;;28.10;48.70;;;;;;4994306;28;20469;-38
2021/06/19 06:45:29;;;;;;;8.23;5.53;;;28.20;49.30;;;;;;5010994;28;20408;-37
2021/06/19 06:47:55;;;;;;;10.07;5.22;;;28.40;48.30;;;;;;5011936;28;20031;-37
2021/06/19 06:50:21;;;;;;;13.55;5.30;;;28.40;48.20;;;;;;4993750;28;20030;-38
2021/06/19 06:52:46;;;;;;;14.45;7.30;;;29.30;48.10;;;;;;4994218;28;20037;-38
2021/06/19 06:55:31;;;;;;;14.23;6.25;;;32.60;43.00;;;;;;5011261;28;20385;-38
2021/06/19 06:57:57;;;;;;;7.28;5.32;;;35.70;38.20;;;;;;4980535;28;20021;-38
2021/06/19 07:00:23;;;;;;;10.13;4.65;;;38.00;34.10;;;;;;5011134;28;20475;-41
2021/06/19 07:02:49;;;;;;;7.47;5.07;;;39.40;32.00;;;;;;5011203;28;20022;-38
2021/06/19 07:05:14;;;;;;;10.35;4.63;;;40.90;30.50;;;;;;4993703;28;20099;-37
2021/06/19 07:07:41;;;;;;;8.07;5.28;;;42.10;29.50;;;;;;5011468;28;20060;-38
2021/06/19 07:10:10;;;;;;;7.28;4.72;;;43.40;28.20;;;;;;5011327;28;20465;-37
2021/06/19 07:12:36;;;;;;;6.28;5.55;;;43.70;27.70;;;;;;5014805;28;20057;-38
2021/06/19 07:15:05;;;;;;;9.65;4.90;;;44.40;27.20;;;;;;4997364;28;20030;-39
2021/06/19 07:17:31;;;;;;;8.98;5.35;;;44.90;26.90;;;;;;4997068;28;20030;-37
2021/06/19 07:19:57;;;;;;;8.48;5.13;;;45.50;26.50;;;;;;5014170;28;20022;-37
2021/06/19 07:22:23;;;;;;;6.75;4.70;;;46.00;25.80;;;;;;4996275;28;20033;-39
2021/06/19 07:24:48;;;;;;;12.05;5.38;;;46.30;25.90;;;;;;4996776;28;20041;-39
2021/06/19 07:27:14;;;;;;;8.85;4.80;;;46.90;25.50;;;;;;4996613;28;20473;-60
2021/06/19 07:29:41;;;;;;;7.22;5.25;;;47.70;25.20;;;;;;5014700;28;20029;-59
2021/06/19 07:32:07;;;;;;;6.18;4.63;;;48.70;24.60;;;;;;5014550;28;20050;-60
2021/06/19 07:34:33;;;;;;;8.02;5.07;;;49.70;23.90;;;;;;5014028;28;20034;-58
2021/06/19 07:36:59;;;;;;;8.10;5.45;;;50.40;23.50;;;;;;5015103;28;20180;-60
2021/06/19 07:39:25;;;;;;;8.73;5.43;;;50.60;23.20;;;;;;5014317;28;20130;-60
2021/06/19 07:41:52;;;;;;;7.88;5.53;;;50.60;23.20;;;;;;5014753;28;20167;-58
2021/06/19 07:44:18;;;;;;;10.82;6.05;;;51.00;23.10;;;;;;5014164;28;20053;-60
2021/06/19 07:46:46;;;;;;;11.73;5.07;;;51.40;23.10;;;;;;4997042;28;20383;-60
2021/06/19 07:49:13;;;;;;;9.18;5.50;;;51.80;23.00;;;;;;5013723;28;20034;-63
2021/06/19 07:51:39;;;;;;;10.85;5.20;;;52.30;22.60;;;;;;5014631;28;20018;-58
2021/06/19 07:54:06;;;;;;;8.80;6.07;;;52.50;22.40;;;;;;4996828;28;20061;-60
2021/06/19 07:56:32;;;;;;;9.35;6.00;;;53.00;22.40;;;;;;5014088;28;20377;-58
2021/06/19 07:58:57;;;;;;;11.35;5.72;;;53.50;22.20;;;;;;5014069;28;20444;-59
2021/06/19 08:01:25;;;;;;;8.90;5.57;;;53.90;22.00;;;;;;4995797;28;20030;-60
2021/06/19 08:03:50;;;;;;;14.98;6.53;;;54.70;21.90;;;;;;4995385;28;20036;-60
2021/06/19 08:06:16;;;;;;;10.57;5.50;;;55.10;21.60;;;;;;5012984;28;20038;-60
2021/06/19 08:08:42;;;;;;;7.95;5.68;;;54.80;21.30;;;;;;4980175;28;20036;-61
2021/06/19 08:11:08;;;;;;;11.18;5.38;;;53.80;21.70;;;;;;5014262;28;20026;-60
2021/06/19 08:13:34;;;;;;;9.38;5.85;;;54.00;21.60;;;;;;5012518;28;20060;-62
2021/06/19 08:16:03;;;;;;;14.05;5.60;;;54.40;21.50;;;;;;5010378;28;20684;-63
2021/06/19 08:18:28;;;;;;;11.80;6.95;;;55.10;21.40;;;;;;4978838;28;20052;-60
2021/06/19 08:20:54;;;;;;;9.02;6.03;;;54.40;21.40;;;;;;4996077;28;20030;-60
2021/06/19 08:23:20;;;;;;;9.27;6.25;;;54.40;21.60;;;;;;5011798;28;20105;-60
2021/06/19 08:25:46;;;;;;;10.00;6.18;;;54.90;21.40;;;;;;4996345;28;20469;-60
2021/06/19 08:28:11;;;;;;;8.30;6.40;;;54.50;21.30;;;;;;5014096;28;20026;-61
2021/06/19 08:30:37;;;;;;;8.13;6.63;;;55.00;21.30;;;;;;4995641;28;20040;-63
2021/06/19 08:33:22;;;;;;;9.23;6.78;;;55.50;21.30;;;;;;4996047;28;20129;-61
2021/06/19 08:35:48;;;;;;;8.00;6.72;;;55.20;21.30;;;;;;4995697;28;20026;-60
2021/06/19 08:38:14;;;;;;;11.63;5.97;;;55.30;21.30;;;;;;4996136;28;20076;-60
2021/06/19 08:40:40;;;;;;;9.27;6.72;;;55.70;21.30;;;;;;5012645;28;20022;-59
2021/06/19 08:43:05;;;;;;;9.95;6.03;;;56.00;21.00;;;;;;5013709;28;20457;-61
2021/06/19 08:45:33;;;;;;;9.95;6.30;;;55.90;21.10;;;;;;4994676;28;20468;-61
2021/06/19 08:48:03;;;;;;;12.23;6.35;;;56.00;21.00;;;;;;4995930;28;20108;-61
2021/06/19 08:50:30;;;;;;;12.85;7.05;;;55.60;21.10;;;;;;4994958;28;20033;-60
2021/06/19 08:52:59;;;;;;;11.45;6.63;;;55.90;21.10;;;;;;5012485;28;20535;-61
2021/06/19 08:55:25;;;;;;;9.13;6.28;;;56.80;20.90;;;;;;5012756;28;20026;-58
2021/06/19 08:57:51;;;;;;;10.57;7.22;;;57.00;20.70;;;;;;5012357;28;20024;-60
2021/06/19 09:00:18;;;;;;;8.27;7.22;;;56.60;20.60;;;;;;4995277;28;20121;-60
2021/06/19 09:03:03;;;;;;;7.93;7.13;;;55.50;20.60;;;;;;5012633;28;20026;-60
2021/06/19 09:05:30;;;;;;;7.22;6.03;;;54.70;21.00;;;;;;4994446;28;20030;-60
2021/06/19 09:07:59;;;;;;;11.65;7.60;;;54.50;21.10;;;;;;5011812;28;20029;-60
2021/06/19 09:10:28;;;;;;;11.68;6.82;;;54.90;20.90;;;;;;4993684;28;20096;-60
2021/06/19 09:12:56;;;;;;;9.23;5.63;;;54.60;21.00;;;;;;4995004;28;20033;-60
2021/06/19 09:15:22;;;;;;;9.45;5.18;;;53.50;21.50;;;;;;5012185;28;20461;-61
2021/06/19 09:18:14;;;;;;;7.15;5.25;;;52.80;21.60;;;;;;4994301;28;20068;-60
2021/06/19 09:21:01;;;;;;;8.48;4.20;;;51.90;21.90;;;;;;5011409;28;20058;-59
2021/06/19 09:23:34;;;;;;;9.07;4.00;;;50.90;22.20;;;;;;5010997;28;20116;-60
2021/06/19 09:26:11;;;;;;;24.10;6.43;;;48.60;22.90;;;;;;5012225;28;20030;-57
2021/06/19 09:29:04;;;;;;;8.80;3.97;;;46.30;24.20;;;;;;4994092;28;20030;-58
2021/06/19 09:31:33;;;;;;;7.95;4.57;;;44.50;25.30;;;;;;5011771;28;20583;-57
2021/06/19 09:34:09;;;;;;;8.63;4.90;;;42.90;26.30;;;;;;4994520;28;20252;-59
2021/06/19 09:36:51;;;;;;;6.95;4.70;;;41.20;27.60;;;;;;4978466;28;20460;-58
2021/06/19 09:39:22;;;;;;;5.97;4.43;;;39.90;28.70;;;;;;4994377;28;20117;-59
2021/06/19 09:41:53;;;;;;;7.15;4.45;;;39.00;29.50;;;;;;5011037;28;20041;-57
2021/06/19 09:44:37;;;;;;;7.13;4.40;;;38.20;30.30;;;;;;4994611;28;20493;-56
2021/06/19 09:47:04;;;;;;;7.95;5.10;;;37.50;31.30;;;;;;5012671;28;20022;-56
2021/06/19 09:49:39;;;;;;;7.00;5.10;;;37.20;31.80;;;;;;5011776;28;20427;-58
2021/06/19 09:52:06;;;;;;;7.93;6.30;;;37.00;32.20;;;;;;4994840;28;20030;-56
2021/06/19 09:54:40;;;;;;;7.63;5.18;;;37.00;32.50;;;;;;5011206;28;20452;-59
2021/06/19 09:57:29;;;;;;;9.18;5.63;;;36.80;32.40;;;;;;4994026;28;20061;-59
2021/06/19 10:00:02;;;;;;;7.18;5.15;;;36.90;33.20;;;;;;4981206;28;20172;-57
2021/06/19 10:02:28;;;;;;;8.07;5.22;;;36.60;33.10;;;;;;5011267;28;20057;-55
2021/06/19 10:04:56;;;;;;;8.43;5.15;;;36.10;33.40;;;;;;5011680;28;20038;-56
2021/06/19 10:07:26;;;;;;;6.47;5.30;;;35.70;34.00;;;;;;4993990;28;20038;-58
2021/06/19 10:09:55;;;;;;;9.45;6.03;;;35.60;34.10;;;;;;5011646;28;20177;-57
2021/06/19 10:12:23;;;;;;;8.93;5.63;;;35.60;34.00;;;;;;5011207;28;20026;-56
2021/06/19 10:14:54;;;;;;;26.27;6.22;;;35.80;34.00;;;;;;5011772;28;20029;-55
2021/06/19 10:17:23;;;;;;;7.65;5.60;;;35.70;34.30;;;;;;5011532;28;20026;-57
2021/06/19 10:19:50;;;;;;;10.98;5.88;;;35.50;34.00;;;;;;5011716;28;20043;-61
2021/06/19 10:22:16;;;;;;;8.18;5.28;;;35.20;34.60;;;;;;4994057;28;20461;-57
2021/06/19 10:24:44;;;;;;;8.70;5.88;;;35.10;35.00;;;;;;5011226;28;20084;-58
2021/06/19 10:27:17;;;;;;;11.73;5.53;;;35.00;35.30;;;;;;4994030;28;20026;-59
2021/06/19 10:29:45;;;;;;;6.97;6.28;;;35.10;35.30;;;;;;4993368;28;20073;-58
2021/06/19 10:32:11;;;;;;;11.80;5.43;;;35.40;34.80;;;;;;4977914;28;20034;-55
2021/06/19 10:34:38;;;;;;;11.30;6.63;;;35.70;34.10;;;;;;5010788;28;20555;-57
2021/06/19 10:37:09;;;;;;;7.47;6.20;;;35.80;34.20;;;;;;4993666;28;20085;-57
2021/06/19 10:39:43;;;;;;;9.52;5.00;;;35.60;34.30;;;;;;5010808;28;20026;-56
2021/06/19 10:42:34;;;;;;;8.20;6.00;;;35.50;34.50;;;;;;4993314;28;20477;-57
2021/06/19 10:45:05;;;;;;;9.30;5.60;;;35.70;34.30;;;;;;4993407;28;20082;-57
2021/06/19 10:47:33;;;;;;;8.13;5.43;;;35.80;34.00;;;;;;5013596;28;20030;-59
2021/06/19 10:50:01;;;;;;;7.63;5.55;;;35.70;34.00;;;;;;5014944;28;20054;-56
2021/06/19 10:52:37;;;;;;;10.75;5.82;;;35.50;34.00;;;;;;5014406;28;20025;-57
2021/06/19 10:55:24;;;;;;;9.88;6.38;;;35.70;34.20;;;;;;5015836;28;20058;-57
2021/06/19 10:57:54;;;;;;;7.93;6.05;;;35.80;34.00;;;;;;4995676;28;20033;-53
2021/06/19 11:00:24;;;;;;;8.32;5.45;;;35.70;34.10;;;;;;4996734;28;20057;-58
2021/06/19 11:02:51;;;;;;;9.07;6.95;;;35.70;33.70;;;;;;4995545;28;20057;-56
2021/06/19 11:05:49;;;;;;;9.23;5.78;;;35.70;33.80;;;;;;4997501;28;20156;-55
2021/06/19 11:08:16;;;;;;;7.50;5.75;;;35.70;33.80;;;;;;5015534;28;20033;-60
2021/06/19 11:10:45;;;;;;;9.02;5.72;;;35.70;33.90;;;;;;4993554;28;20316;-54
2021/06/19 11:13:29;;;;;;;9.73;6.63;;;35.70;33.90;;;;;;4996173;28;20026;-48
2021/06/19 11:15:57;;;;;;;9.35;5.70;;;35.80;34.40;;;;;;5014684;28;20033;-57
2021/06/19 11:18:47;;;;;;;7.72;6.15;;;35.50;34.50;;;;;;4995792;28;20052;-53
2021/06/19 11:21:18;;;;;;;8.55;6.22;;;35.70;34.50;;;;;;5011885;28;20155;-54
2021/06/19 11:24:02;;;;;;;9.52;5.60;;;36.10;33.90;;;;;;4994191;28;20040;-55
2021/06/19 11:27:04;;;;;;;8.18;5.38;;;36.20;33.70;;;;;;4994700;28;20133;-54
2021/06/19 11:29:39;;;;;;;7.38;4.97;;;36.70;32.40;;;;;;4898059;29;20028;-59
2021/06/19 11:32:35;;;;;;;6.68;5.25;;;36.60;32.30;;;;;;4994906;28;20034;-59
2021/06/19 11:35:03;;;;;;;7.18;5.40;;;36.50;32.50;;;;;;4987941;28;20040;-58
2021/06/19 11:37:59;;;;;;;10.75;6.07;;;36.50;32.30;;;;;;5009059;28;20038;-61
2021/06/19 11:40:31;;;;;;;8.82;6.72;;;36.40;32.60;;;;;;4989446;28;20461;-58
2021/06/19 11:42:57;;;;;;;10.63;5.88;;;36.60;32.60;;;;;;5013655;28;20480;-55
2021/06/19 11:45:23;;;;;;;11.93;5.55;;;36.80;32.00;;;;;;5013107;28;20054;-59
2021/06/19 11:48:02;;;;;;;26.63;20.20;;;36.70;32.00;;;;;;4992625;28;20437;-60
2021/06/19 11:50:29;;;;;;;12.75;8.90;;;36.70;31.90;;;;;;5014305;28;20034;-58
2021/06/19 11:52:54;;;;;;;15.68;6.82;;;36.80;32.30;;;;;;5012567;28;20026;-57
2021/06/19 11:55:22;;;;;;;10.60;5.60;;;37.00;32.10;;;;;;4992706;28;20495;-56
2021/06/19 11:57:57;;;;;;;9.98;5.80;;;36.80;31.90;;;;;;5012020;28;20480;-58
2021/06/19 12:00:23;;;;;;;9.95;5.20;;;36.50;32.20;;;;;;4996380;28;20034;-55
2021/06/19 12:02:53;;;;;;;10.95;6.32;;;36.10;32.90;;;;;;5010677;28;20109;-58
2021/06/19 12:05:20;;;;;;;8.55;5.97;;;36.00;33.90;;;;;;4994963;28;20116;-57
2021/06/19 12:07:51;;;;;;;12.23;6.13;;;35.70;34.70;;;;;;4995259;28;20056;-58
2021/06/19 12:10:30;;;;;;;10.07;7.00;;;35.60;34.90;;;;;;4996948;28;20095;-56
2021/06/19 12:13:05;;;;;;;10.38;5.38;;;35.40;35.00;;;;;;4994829;28;20418;-55
2021/06/19 12:15:33;;;;;;;13.75;6.03;;;35.00;36.20;;;;;;5013436;28;20041;-55
2021/06/19 12:18:01;;;;;;;8.90;6.13;;;34.90;35.60;;;;;;4996154;28;20459;-57
2021/06/19 12:20:28;;;;;;;14.48;7.15;;;35.10;35.80;;;;;;4995963;28;20103;-51
2021/06/19 12:22:54;;;;;;;11.30;6.03;;;35.30;35.30;;;;;;4995233;28;20146;-57
2021/06/19 12:25:49;;;;;;;8.30;5.85;;;35.50;34.70;;;;;;5013135;28;20389;-51
2021/06/19 12:28:23;;;;;;;14.40;5.95;;;35.70;34.30;;;;;;4994309;28;20544;-53
2021/06/19 12:30:56;;;;;;;9.80;5.40;;;35.70;34.50;;;;;;4995444;28;20037;-56
2021/06/19 12:33:27;;;;;;;22.42;13.80;;;35.30;34.30;;;;;;4996055;28;20041;-56
2021/06/19 12:35:54;;;;;;;8.70;7.45;;;35.00;34.80;;;;;;4995466;28;20391;-56
2021/06/19 12:38:21;;;;;;;9.32;6.50;;;35.00;34.70;;;;;;4979728;28;20473;-55
2021/06/19 12:40:47;;;;;;;15.00;8.75;;;35.00;34.90;;;;;;4995160;28;20034;-57
2021/06/19 12:43:14;;;;;;;10.95;6.78;;;35.30;34.30;;;;;;4995807;28;20517;-53
2021/06/19 12:45:44;;;;;;;8.73;5.53;;;35.70;34.10;;;;;;5012763;28;20069;-57
2021/06/19 12:48:29;;;;;;;6.72;5.68;;;35.90;33.50;;;;;;5013190;28;20547;-51
2021/06/19 12:51:01;;;;;;;11.15;5.57;;;35.80;33.70;;;;;;5012721;28;20149;-56
2021/06/19 12:53:32;;;;;;;7.75;5.32;;;35.80;33.30;;;;;;5013008;28;20061;-52